sensor_id;sensor_type;location;lat;lon;timestamp;P1;durP1;ratioP1;P2;durP2;ratioP2
69573;SDS011;62840;52.366;5.980;2023-12-04T00:01:45;15.05;;;6.47;;
69573;SDS011;62840;52.366;5.980;2023-12-04T00:04:11;17.88;;;7.10;;
69573;SDS011;62840;52.366;5.980;2023-12-04T00:06:38;13.82;;;6.40;;
69573;SDS011;62840;52.366;5.980;2023-12-04T00:09:05;14.87;;;6.60;;
69573;SDS011;62840;52.366;5.980;2023-12-04T00:11:31;16.15;;;7.63;;
69573;SDS011;62840;52.366;5.980;2023-12-04T00:13:57;16.42;;;7.40;;
69573;SDS011;62840;52.366;5.980;2023-12-04T00:16:26;16.50;;;6.78;;
69573;SDS011;62840;52.366;5.980;2023-12-04T00:18:52;14.57;;;6.80;;
69573;SDS011;62840;52.366;5.980;2023-12-04T00:21:18;15.85;;;6.03;;
69573;SDS011;62840;52.366;5.980;2023-12-04T00:23:44;16.58;;;7.55;;
69573;SDS011;62840;52.366;5.980;2023-12-04T00:26:10;16.60;;;7.57;;
69573;SDS011;62840;52.366;5.980;2023-12-04T00:28:37;14.75;;;6.68;;
69573;SDS011;62840;52.366;5.980;2023-12-04T00:31:03;14.77;;;6.78;;
69573;SDS011;62840;52.366;5.980;2023-12-04T00:33:33;15.87;;;6.67;;
69573;SDS011;62840;52.366;5.980;2023-12-04T00:35:59;15.65;;;7.53;;
69573;SDS011;62840;52.366;5.980;2023-12-04T00:38:24;14.95;;;7.07;;
69573;SDS011;62840;52.366;5.980;2023-12-04T00:40:50;16.13;;;7.10;;
69573;SDS011;62840;52.366;5.980;2023-12-04T00:43:16;17.17;;;7.13;;
69573;SDS011;62840;52.366;5.980;2023-12-04T00:45:42;18.08;;;7.47;;
69573;SDS011;62840;52.366;5.980;2023-12-04T00:48:08;17.80;;;7.33;;
69573;SDS011;62840;52.366;5.980;2023-12-04T00:50:36;18.83;;;7.65;;
69573;SDS011;62840;52.366;5.980;2023-12-04T00:53:02;20.25;;;7.00;;
69573;SDS011;62840;52.366;5.980;2023-12-04T00:55:28;17.67;;;7.50;;
69573;SDS011;62840;52.366;5.980;2023-12-04T00:57:54;18.23;;;7.47;;
69573;SDS011;62840;52.366;5.980;2023-12-04T01:00:20;17.48;;;7.28;;
69573;SDS011;62840;52.366;5.980;2023-12-04T01:02:45;16.63;;;7.95;;
69573;SDS011;62840;52.366;5.980;2023-12-04T01:05:11;16.48;;;7.32;;
69573;SDS011;62840;52.366;5.980;2023-12-04T01:07:40;17.13;;;7.13;;
69573;SDS011;62840;52.366;5.980;2023-12-04T01:10:06;16.05;;;6.10;;
69573;SDS011;62840;52.366;5.980;2023-12-04T01:12:33;18.33;;;6.65;;
69573;SDS011;62840;52.366;5.980;2023-12-04T01:15:00;16.33;;;7.00;;
69573;SDS011;62840;52.366;5.980;2023-12-04T01:17:26;19.77;;;7.73;;
69573;SDS011;62840;52.366;5.980;2023-12-04T01:19:52;17.23;;;6.45;;
69573;SDS011;62840;52.366;5.980;2023-12-04T01:22:18;20.42;;;7.50;;
69573;SDS011;62840;52.366;5.980;2023-12-04T01:24:46;17.88;;;7.03;;
69573;SDS011;62840;52.366;5.980;2023-12-04T01:27:12;16.77;;;6.80;;
69573;SDS011;62840;52.366;5.980;2023-12-04T01:29:38;18.50;;;6.88;;
69573;SDS011;62840;52.366;5.980;2023-12-04T01:32:04;17.00;;;7.03;;
69573;SDS011;62840;52.366;5.980;2023-12-04T01:34:31;18.00;;;6.70;;
69573;SDS011;62840;52.366;5.980;2023-12-04T01:36:57;15.60;;;6.65;;
69573;SDS011;62840;52.366;5.980;2023-12-04T01:39:23;17.42;;;6.88;;
69573;SDS011;62840;52.366;5.980;2023-12-04T01:41:51;19.33;;;7.17;;
69573;SDS011;62840;52.366;5.980;2023-12-04T01:44:17;19.67;;;7.35;;
69573;SDS011;62840;52.366;5.980;2023-12-04T01:46:43;17.27;;;7.28;;
69573;SDS011;62840;52.366;5.980;2023-12-04T01:49:09;17.52;;;7.07;;
69573;SDS011;62840;52.366;5.980;2023-12-04T01:51:35;17.40;;;7.18;;
69573;SDS011;62840;52.366;5.980;2023-12-04T01:54:02;19.73;;;6.97;;
69573;SDS011;62840;52.366;5.980;2023-12-04T01:56:30;17.13;;;7.15;;
69573;SDS011;62840;52.366;5.980;2023-12-04T01:59:00;20.92;;;7.70;;
69573;SDS011;62840;52.366;5.980;2023-12-04T02:01:26;18.42;;;7.00;;
69573;SDS011;62840;52.366;5.980;2023-12-04T02:03:52;18.00;;;7.25;;
69573;SDS011;62840;52.366;5.980;2023-12-04T02:06:21;16.33;;;6.10;;
69573;SDS011;62840;52.366;5.980;2023-12-04T02:08:47;16.88;;;6.70;;
69573;SDS011;62840;52.366;5.980;2023-12-04T02:11:14;18.38;;;6.53;;
69573;SDS011;62840;52.366;5.980;2023-12-04T02:13:40;17.20;;;6.97;;
69573;SDS011;62840;52.366;5.980;2023-12-04T02:16:09;15.20;;;6.43;;
69573;SDS011;62840;52.366;5.980;2023-12-04T02:18:39;16.80;;;6.25;;
69573;SDS011;62840;52.366;5.980;2023-12-04T02:21:07;16.98;;;6.53;;
69573;SDS011;62840;52.366;5.980;2023-12-04T02:23:33;19.00;;;7.10;;
69573;SDS011;62840;52.366;5.980;2023-12-04T02:26:03;18.17;;;6.63;;
69573;SDS011;62840;52.366;5.980;2023-12-04T02:28:35;16.55;;;6.93;;
69573;SDS011;62840;52.366;5.980;2023-12-04T02:31:05;16.65;;;6.38;;
69573;SDS011;62840;52.366;5.980;2023-12-04T02:33:34;16.48;;;6.93;;
69573;SDS011;62840;52.366;5.980;2023-12-04T02:36:04;14.90;;;6.40;;
69573;SDS011;62840;52.366;5.980;2023-12-04T02:38:32;14.75;;;6.00;;
69573;SDS011;62840;52.366;5.980;2023-12-04T02:41:02;18.20;;;7.15;;
69573;SDS011;62840;52.366;5.980;2023-12-04T02:43:29;16.35;;;6.80;;
69573;SDS011;62840;52.366;5.980;2023-12-04T02:45:54;16.60;;;6.07;;
69573;SDS011;62840;52.366;5.980;2023-12-04T02:48:20;16.40;;;6.10;;
69573;SDS011;62840;52.366;5.980;2023-12-04T02:50:46;18.58;;;7.47;;
69573;SDS011;62840;52.366;5.980;2023-12-04T02:53:12;16.10;;;6.10;;
69573;SDS011;62840;52.366;5.980;2023-12-04T02:55:38;14.80;;;5.90;;
69573;SDS011;62840;52.366;5.980;2023-12-04T02:58:06;15.18;;;6.50;;
69573;SDS011;62840;52.366;5.980;2023-12-04T03:00:32;17.20;;;6.60;;
69573;SDS011;62840;52.366;5.980;2023-12-04T03:02:58;15.10;;;6.15;;
69573;SDS011;62840;52.366;5.980;2023-12-04T03:05:24;13.65;;;5.95;;
69573;SDS011;62840;52.366;5.980;2023-12-04T03:07:50;14.73;;;6.13;;
69573;SDS011;62840;52.366;5.980;2023-12-04T03:10:16;16.05;;;6.00;;
69573;SDS011;62840;52.366;5.980;2023-12-04T03:12:42;16.65;;;6.38;;
69573;SDS011;62840;52.366;5.980;2023-12-04T03:15:10;16.63;;;6.47;;
69573;SDS011;62840;52.366;5.980;2023-12-04T03:17:36;15.50;;;6.00;;
69573;SDS011;62840;52.366;5.980;2023-12-04T03:20:03;15.63;;;6.15;;
69573;SDS011;62840;52.366;5.980;2023-12-04T03:22:30;14.40;;;5.93;;
69573;SDS011;62840;52.366;5.980;2023-12-04T03:24:55;16.03;;;6.03;;
69573;SDS011;62840;52.366;5.980;2023-12-04T03:27:21;16.50;;;6.53;;
69573;SDS011;62840;52.366;5.980;2023-12-04T03:29:47;13.37;;;5.47;;
69573;SDS011;62840;52.366;5.980;2023-12-04T03:32:16;16.25;;;6.70;;
69573;SDS011;62840;52.366;5.980;2023-12-04T03:34:41;13.65;;;6.10;;
69573;SDS011;62840;52.366;5.980;2023-12-04T03:37:07;18.00;;;6.33;;
69573;SDS011;62840;52.366;5.980;2023-12-04T03:39:33;13.60;;;5.57;;
69573;SDS011;62840;52.366;5.980;2023-12-04T03:41:59;14.55;;;5.97;;
69573;SDS011;62840;52.366;5.980;2023-12-04T03:44:25;15.50;;;5.83;;
69573;SDS011;62840;52.366;5.980;2023-12-04T03:46:51;16.38;;;5.95;;
69573;SDS011;62840;52.366;5.980;2023-12-04T03:49:19;17.25;;;6.32;;
69573;SDS011;62840;52.366;5.980;2023-12-04T03:51:45;13.13;;;5.87;;
69573;SDS011;62840;52.366;5.980;2023-12-04T03:54:11;16.77;;;5.97;;
69573;SDS011;62840;52.366;5.980;2023-12-04T03:56:37;14.32;;;6.28;;
69573;SDS011;62840;52.366;5.980;2023-12-04T03:59:03;15.60;;;5.70;;
69573;SDS011;62840;52.366;5.980;2023-12-04T04:01:29;13.70;;;5.47;;
69573;SDS011;62840;52.366;5.980;2023-12-04T04:03:54;15.43;;;6.75;;
69573;SDS011;62840;52.366;5.980;2023-12-04T04:06:23;15.33;;;5.73;;
69573;SDS011;62840;52.366;5.980;2023-12-04T04:08:49;14.55;;;6.07;;
69573;SDS011;62840;52.366;5.980;2023-12-04T04:11:15;14.52;;;6.18;;
69573;SDS011;62840;52.366;5.980;2023-12-04T04:13:40;15.37;;;5.73;;
69573;SDS011;62840;52.366;5.980;2023-12-04T04:16:07;15.63;;;5.65;;
69573;SDS011;62840;52.366;5.980;2023-12-04T04:18:39;11.48;;;4.78;;
69573;SDS011;62840;52.366;5.980;2023-12-04T04:21:05;14.50;;;5.93;;
69573;SDS011;62840;52.366;5.980;2023-12-04T04:23:34;13.20;;;5.78;;
69573;SDS011;62840;52.366;5.980;2023-12-04T04:25:59;14.57;;;5.65;;
69573;SDS011;62840;52.366;5.980;2023-12-04T04:28:25;14.57;;;5.23;;
69573;SDS011;62840;52.366;5.980;2023-12-04T04:30:51;15.43;;;5.82;;
69573;SDS011;62840;52.366;5.980;2023-12-04T04:33:17;15.10;;;6.15;;
69573;SDS011;62840;52.366;5.980;2023-12-04T04:35:43;13.83;;;5.37;;
69573;SDS011;62840;52.366;5.980;2023-12-04T04:38:09;17.42;;;5.70;;
69573;SDS011;62840;52.366;5.980;2023-12-04T04:40:37;14.18;;;5.82;;
69573;SDS011;62840;52.366;5.980;2023-12-04T04:43:03;12.20;;;5.78;;
69573;SDS011;62840;52.366;5.980;2023-12-04T04:45:29;13.43;;;5.28;;
69573;SDS011;62840;52.366;5.980;2023-12-04T04:47:55;14.25;;;5.13;;
69573;SDS011;62840;52.366;5.980;2023-12-04T04:50:21;12.40;;;4.85;;
69573;SDS011;62840;52.366;5.980;2023-12-04T04:52:46;13.23;;;5.70;;
69573;SDS011;62840;52.366;5.980;2023-12-04T04:55:12;11.73;;;5.33;;
69573;SDS011;62840;52.366;5.980;2023-12-04T04:57:41;14.82;;;5.35;;
69573;SDS011;62840;52.366;5.980;2023-12-04T05:00:07;13.75;;;4.93;;
69573;SDS011;62840;52.366;5.980;2023-12-04T05:02:34;12.60;;;5.47;;
69573;SDS011;62840;52.366;5.980;2023-12-04T05:05:02;13.97;;;5.83;;
69573;SDS011;62840;52.366;5.980;2023-12-04T05:07:29;13.32;;;5.47;;
69573;SDS011;62840;52.366;5.980;2023-12-04T05:09:54;11.80;;;5.28;;
69573;SDS011;62840;52.366;5.980;2023-12-04T05:12:20;13.90;;;5.07;;
69573;SDS011;62840;52.366;5.980;2023-12-04T05:14:49;10.75;;;4.65;;
69573;SDS011;62840;52.366;5.980;2023-12-04T05:17:15;12.60;;;5.15;;
69573;SDS011;62840;52.366;5.980;2023-12-04T05:19:41;13.75;;;5.57;;
69573;SDS011;62840;52.366;5.980;2023-12-04T05:22:07;12.57;;;4.93;;
69573;SDS011;62840;52.366;5.980;2023-12-04T05:24:33;13.63;;;5.55;;
69573;SDS011;62840;52.366;5.980;2023-12-04T05:26:59;10.73;;;4.55;;
69573;SDS011;62840;52.366;5.980;2023-12-04T05:29:25;12.20;;;5.17;;
69573;SDS011;62840;52.366;5.980;2023-12-04T05:31:53;11.82;;;5.15;;
69573;SDS011;62840;52.366;5.980;2023-12-04T05:34:19;11.23;;;5.18;;
69573;SDS011;62840;52.366;5.980;2023-12-04T05:36:45;12.23;;;4.70;;
69573;SDS011;62840;52.366;5.980;2023-12-04T05:39:11;10.82;;;4.90;;
69573;SDS011;62840;52.366;5.980;2023-12-04T05:41:37;12.63;;;4.90;;
69573;SDS011;62840;52.366;5.980;2023-12-04T05:44:03;12.80;;;4.50;;
69573;SDS011;62840;52.366;5.980;2023-12-04T05:46:29;12.48;;;5.10;;
69573;SDS011;62840;52.366;5.980;2023-12-04T05:48:57;12.20;;;5.07;;
69573;SDS011;62840;52.366;5.980;2023-12-04T05:51:23;11.70;;;4.70;;
69573;SDS011;62840;52.366;5.980;2023-12-04T05:53:49;11.45;;;5.25;;
69573;SDS011;62840;52.366;5.980;2023-12-04T05:56:15;13.27;;;5.03;;
69573;SDS011;62840;52.366;5.980;2023-12-04T05:58:41;10.75;;;4.50;;
69573;SDS011;62840;52.366;5.980;2023-12-04T06:01:06;11.13;;;4.90;;
69573;SDS011;62840;52.366;5.980;2023-12-04T06:03:32;10.50;;;4.23;;
69573;SDS011;62840;52.366;5.980;2023-12-04T06:06:01;11.05;;;4.72;;
69573;SDS011;62840;52.366;5.980;2023-12-04T06:08:27;10.40;;;4.43;;
69573;SDS011;62840;52.366;5.980;2023-12-04T06:10:53;13.18;;;4.90;;
69573;SDS011;62840;52.366;5.980;2023-12-04T06:13:19;9.38;;;4.93;;
69573;SDS011;62840;52.366;5.980;2023-12-04T06:15:45;10.88;;;4.60;;
69573;SDS011;62840;52.366;5.980;2023-12-04T06:18:11;9.83;;;4.60;;
69573;SDS011;62840;52.366;5.980;2023-12-04T06:20:37;13.13;;;5.18;;
69573;SDS011;62840;52.366;5.980;2023-12-04T06:23:05;10.25;;;4.95;;
69573;SDS011;62840;52.366;5.980;2023-12-04T06:25:32;13.75;;;4.95;;
69573;SDS011;62840;52.366;5.980;2023-12-04T06:27:59;11.20;;;4.57;;
69573;SDS011;62840;52.366;5.980;2023-12-04T06:30:26;12.25;;;4.75;;
69573;SDS011;62840;52.366;5.980;2023-12-04T06:32:53;13.93;;;5.00;;
69573;SDS011;62840;52.366;5.980;2023-12-04T06:35:20;11.23;;;4.53;;
69573;SDS011;62840;52.366;5.980;2023-12-04T06:37:47;10.23;;;4.68;;
69573;SDS011;62840;52.366;5.980;2023-12-04T06:40:19;10.50;;;4.37;;
69573;SDS011;62840;52.366;5.980;2023-12-04T06:42:46;9.27;;;3.70;;
69573;SDS011;62840;52.366;5.980;2023-12-04T06:45:13;10.40;;;4.45;;
69573;SDS011;62840;52.366;5.980;2023-12-04T06:47:40;10.27;;;4.75;;
69573;SDS011;62840;52.366;5.980;2023-12-04T06:50:15;9.23;;;3.70;;
69573;SDS011;62840;52.366;5.980;2023-12-04T06:52:41;9.70;;;3.87;;
69573;SDS011;62840;52.366;5.980;2023-12-04T06:55:07;9.70;;;4.18;;
69573;SDS011;62840;52.366;5.980;2023-12-04T06:57:36;9.98;;;4.03;;
69573;SDS011;62840;52.366;5.980;2023-12-04T07:00:02;10.05;;;4.03;;
69573;SDS011;62840;52.366;5.980;2023-12-04T07:02:29;11.27;;;4.40;;
69573;SDS011;62840;52.366;5.980;2023-12-04T07:04:55;8.68;;;4.10;;
69573;SDS011;62840;52.366;5.980;2023-12-04T07:07:21;9.80;;;4.05;;
69573;SDS011;62840;52.366;5.980;2023-12-04T07:09:47;11.50;;;4.47;;
69573;SDS011;62840;52.366;5.980;2023-12-04T07:12:13;10.77;;;4.07;;
69573;SDS011;62840;52.366;5.980;2023-12-04T07:14:41;10.25;;;4.38;;
69573;SDS011;62840;52.366;5.980;2023-12-04T07:17:07;9.97;;;4.23;;
69573;SDS011;62840;52.366;5.980;2023-12-04T07:19:34;10.35;;;4.13;;
69573;SDS011;62840;52.366;5.980;2023-12-04T07:22:00;10.05;;;4.40;;
69573;SDS011;62840;52.366;5.980;2023-12-04T07:24:26;10.53;;;4.33;;
69573;SDS011;62840;52.366;5.980;2023-12-04T07:26:52;8.73;;;3.95;;
69573;SDS011;62840;52.366;5.980;2023-12-04T07:29:17;8.50;;;3.95;;
69573;SDS011;62840;52.366;5.980;2023-12-04T07:31:46;9.47;;;4.37;;
69573;SDS011;62840;52.366;5.980;2023-12-04T07:34:12;9.90;;;3.70;;
69573;SDS011;62840;52.366;5.980;2023-12-04T07:36:38;9.40;;;4.18;;
69573;SDS011;62840;52.366;5.980;2023-12-04T07:39:03;8.43;;;3.80;;
69573;SDS011;62840;52.366;5.980;2023-12-04T07:41:29;9.30;;;4.28;;
69573;SDS011;62840;52.366;5.980;2023-12-04T07:43:55;10.33;;;4.70;;
69573;SDS011;62840;52.366;5.980;2023-12-04T07:46:21;10.85;;;4.18;;
69573;SDS011;62840;52.366;5.980;2023-12-04T07:48:49;9.73;;;4.57;;
69573;SDS011;62840;52.366;5.980;2023-12-04T07:51:15;10.73;;;4.63;;
69573;SDS011;62840;52.366;5.980;2023-12-04T07:53:41;9.65;;;4.45;;
69573;SDS011;62840;52.366;5.980;2023-12-04T07:56:08;10.65;;;4.78;;
69573;SDS011;62840;52.366;5.980;2023-12-04T07:58:36;11.70;;;4.75;;
69573;SDS011;62840;52.366;5.980;2023-12-04T08:01:02;10.10;;;4.63;;
69573;SDS011;62840;52.366;5.980;2023-12-04T08:03:29;10.05;;;4.90;;
69573;SDS011;62840;52.366;5.980;2023-12-04T08:05:57;9.95;;;4.35;;
69573;SDS011;62840;52.366;5.980;2023-12-04T08:08:23;10.50;;;4.00;;
69573;SDS011;62840;52.366;5.980;2023-12-04T08:10:49;9.38;;;4.10;;
69573;SDS011;62840;52.366;5.980;2023-12-04T08:13:16;10.52;;;4.10;;
69573;SDS011;62840;52.366;5.980;2023-12-04T08:15:42;10.57;;;4.90;;
69573;SDS011;62840;52.366;5.980;2023-12-04T08:18:08;8.85;;;4.25;;
69573;SDS011;62840;52.366;5.980;2023-12-04T08:20:34;10.30;;;3.80;;
69573;SDS011;62840;52.366;5.980;2023-12-04T08:23:03;8.05;;;3.83;;
69573;SDS011;62840;52.366;5.980;2023-12-04T08:25:29;9.10;;;3.95;;
69573;SDS011;62840;52.366;5.980;2023-12-04T08:27:55;8.85;;;3.50;;
69573;SDS011;62840;52.366;5.980;2023-12-04T08:30:20;10.27;;;3.83;;
69573;SDS011;62840;52.366;5.980;2023-12-04T08:32:46;8.68;;;4.03;;
69573;SDS011;62840;52.366;5.980;2023-12-04T08:35:12;9.60;;;4.37;;
69573;SDS011;62840;52.366;5.980;2023-12-04T08:37:38;8.32;;;3.72;;
69573;SDS011;62840;52.366;5.980;2023-12-04T08:40:08;8.05;;;3.75;;
69573;SDS011;62840;52.366;5.980;2023-12-04T08:42:35;11.32;;;4.80;;
69573;SDS011;62840;52.366;5.980;2023-12-04T08:45:01;8.83;;;3.73;;
69573;SDS011;62840;52.366;5.980;2023-12-04T08:47:27;9.85;;;3.65;;
69573;SDS011;62840;52.366;5.980;2023-12-04T08:49:52;8.45;;;3.80;;
69573;SDS011;62840;52.366;5.980;2023-12-04T08:52:18;7.93;;;3.80;;
69573;SDS011;62840;52.366;5.980;2023-12-04T08:54:44;7.35;;;3.17;;
69573;SDS011;62840;52.366;5.980;2023-12-04T08:57:13;7.80;;;3.45;;
69573;SDS011;62840;52.366;5.980;2023-12-04T08:59:39;9.23;;;3.57;;
69573;SDS011;62840;52.366;5.980;2023-12-04T09:02:04;10.20;;;4.15;;
69573;SDS011;62840;52.366;5.980;2023-12-04T09:04:31;10.68;;;4.90;;
69573;SDS011;62840;52.366;5.980;2023-12-04T09:06:57;10.63;;;4.50;;
69573;SDS011;62840;52.366;5.980;2023-12-04T09:09:23;13.00;;;5.07;;
69573;SDS011;62840;52.366;5.980;2023-12-04T09:11:49;10.00;;;3.83;;
69573;SDS011;62840;52.366;5.980;2023-12-04T09:14:17;10.05;;;4.40;;
69573;SDS011;62840;52.366;5.980;2023-12-04T09:16:43;7.27;;;3.27;;
69573;SDS011;62840;52.366;5.980;2023-12-04T09:19:09;8.95;;;3.38;;
69573;SDS011;62840;52.366;5.980;2023-12-04T09:21:35;11.68;;;3.63;;
69573;SDS011;62840;52.366;5.980;2023-12-04T09:24:01;7.70;;;3.23;;
69573;SDS011;62840;52.366;5.980;2023-12-04T09:26:26;7.90;;;3.40;;
69573;SDS011;62840;52.366;5.980;2023-12-04T09:28:52;11.10;;;3.58;;
69573;SDS011;62840;52.366;5.980;2023-12-04T09:31:21;8.10;;;3.53;;
69573;SDS011;62840;52.366;5.980;2023-12-04T09:33:47;6.82;;;3.50;;
69573;SDS011;62840;52.366;5.980;2023-12-04T09:36:13;7.90;;;3.42;;
69573;SDS011;62840;52.366;5.980;2023-12-04T09:38:38;7.70;;;3.03;;
69573;SDS011;62840;52.366;5.980;2023-12-04T09:41:05;8.93;;;3.42;;
69573;SDS011;62840;52.366;5.980;2023-12-04T09:43:35;6.68;;;3.10;;
69573;SDS011;62840;52.366;5.980;2023-12-04T09:46:02;7.90;;;3.97;;
69573;SDS011;62840;52.366;5.980;2023-12-04T09:48:31;7.93;;;3.30;;
69573;SDS011;62840;52.366;5.980;2023-12-04T09:51:00;8.32;;;3.80;;
69573;SDS011;62840;52.366;5.980;2023-12-04T09:53:27;7.95;;;3.88;;
69573;SDS011;62840;52.366;5.980;2023-12-04T09:55:57;8.63;;;3.63;;
69573;SDS011;62840;52.366;5.980;2023-12-04T09:58:28;8.33;;;3.70;;
69573;SDS011;62840;52.366;5.980;2023-12-04T10:00:56;8.32;;;3.83;;
69573;SDS011;62840;52.366;5.980;2023-12-04T10:03:22;9.02;;;3.80;;
69573;SDS011;62840;52.366;5.980;2023-12-04T10:05:53;8.85;;;3.67;;
69573;SDS011;62840;52.366;5.980;2023-12-04T10:08:20;8.45;;;4.32;;
69573;SDS011;62840;52.366;5.980;2023-12-04T10:10:45;8.27;;;4.33;;
69573;SDS011;62840;52.366;5.980;2023-12-04T10:13:11;13.15;;;5.40;;
69573;SDS011;62840;52.366;5.980;2023-12-04T10:15:45;12.27;;;5.07;;
69573;SDS011;62840;52.366;5.980;2023-12-04T10:18:18;13.40;;;5.70;;
69573;SDS011;62840;52.366;5.980;2023-12-04T10:20:53;12.68;;;5.72;;
69573;SDS011;62840;52.366;5.980;2023-12-04T10:23:19;12.07;;;4.70;;
69573;SDS011;62840;52.366;5.980;2023-12-04T10:25:46;9.35;;;4.50;;
69573;SDS011;62840;52.366;5.980;2023-12-04T10:28:14;10.50;;;4.73;;
69573;SDS011;62840;52.366;5.980;2023-12-04T10:30:39;10.23;;;4.30;;
69573;SDS011;62840;52.366;5.980;2023-12-04T10:33:06;10.05;;;3.63;;
69573;SDS011;62840;52.366;5.980;2023-12-04T10:35:34;7.13;;;3.50;;
69573;SDS011;62840;52.366;5.980;2023-12-04T10:38:04;9.60;;;4.38;;
69573;SDS011;62840;52.366;5.980;2023-12-04T10:40:32;9.25;;;3.85;;
69573;SDS011;62840;52.366;5.980;2023-12-04T10:43:09;10.52;;;3.85;;
69573;SDS011;62840;52.366;5.980;2023-12-04T10:45:37;8.93;;;3.60;;
69573;SDS011;62840;52.366;5.980;2023-12-04T10:48:05;8.33;;;3.77;;
69573;SDS011;62840;52.366;5.980;2023-12-04T10:50:31;7.88;;;3.97;;
69573;SDS011;62840;52.366;5.980;2023-12-04T10:52:58;8.18;;;3.85;;
69573;SDS011;62840;52.366;5.980;2023-12-04T10:55:29;8.63;;;3.55;;
69573;SDS011;62840;52.366;5.980;2023-12-04T10:57:55;9.30;;;3.80;;
69573;SDS011;62840;52.366;5.980;2023-12-04T11:00:22;9.13;;;3.60;;
69573;SDS011;62840;52.366;5.980;2023-12-04T11:02:49;8.98;;;4.18;;
69573;SDS011;62840;52.366;5.980;2023-12-04T11:05:22;9.27;;;4.18;;
69573;SDS011;62840;52.366;5.980;2023-12-04T11:07:50;9.88;;;4.35;;
69573;SDS011;62840;52.366;5.980;2023-12-04T11:10:23;9.23;;;4.05;;
69573;SDS011;62840;52.366;5.980;2023-12-04T11:12:54;9.87;;;4.20;;
69573;SDS011;62840;52.366;5.980;2023-12-04T11:15:27;10.15;;;4.22;;
69573;SDS011;62840;52.366;5.980;2023-12-04T11:18:00;8.90;;;4.45;;
69573;SDS011;62840;52.366;5.980;2023-12-04T11:20:27;8.65;;;3.78;;
69573;SDS011;62840;52.366;5.980;2023-12-04T11:22:56;7.73;;;3.57;;
69573;SDS011;62840;52.366;5.980;2023-12-04T11:25:25;9.43;;;4.10;;
69573;SDS011;62840;52.366;5.980;2023-12-04T11:27:53;9.18;;;4.30;;
69573;SDS011;62840;52.366;5.980;2023-12-04T11:30:21;9.95;;;4.43;;
69573;SDS011;62840;52.366;5.980;2023-12-04T11:32:48;12.15;;;4.38;;
69573;SDS011;62840;52.366;5.980;2023-12-04T11:35:15;9.57;;;4.37;;
69573;SDS011;62840;52.366;5.980;2023-12-04T11:37:41;10.35;;;4.50;;
69573;SDS011;62840;52.366;5.980;2023-12-04T11:40:08;10.15;;;4.53;;
69573;SDS011;62840;52.366;5.980;2023-12-04T11:42:40;10.32;;;5.07;;
69573;SDS011;62840;52.366;5.980;2023-12-04T11:45:07;18.17;;;7.65;;
69573;SDS011;62840;52.366;5.980;2023-12-04T11:47:48;19.20;;;7.80;;
69573;SDS011;62840;52.366;5.980;2023-12-04T11:50:15;14.25;;;5.72;;
69573;SDS011;62840;52.366;5.980;2023-12-04T11:52:41;15.45;;;5.57;;
69573;SDS011;62840;52.366;5.980;2023-12-04T11:55:07;13.40;;;6.05;;
69573;SDS011;62840;52.366;5.980;2023-12-04T11:57:33;12.93;;;5.50;;
69573;SDS011;62840;52.366;5.980;2023-12-04T12:00:14;13.15;;;5.38;;
69573;SDS011;62840;52.366;5.980;2023-12-04T12:02:47;11.27;;;5.57;;
69573;SDS011;62840;52.366;5.980;2023-12-04T12:05:26;10.73;;;4.78;;
69573;SDS011;62840;52.366;5.980;2023-12-04T12:07:53;9.35;;;4.75;;
69573;SDS011;62840;52.366;5.980;2023-12-04T12:10:19;11.23;;;5.07;;
69573;SDS011;62840;52.366;5.980;2023-12-04T12:12:45;11.30;;;5.43;;
69573;SDS011;62840;52.366;5.980;2023-12-04T12:15:14;11.75;;;5.65;;
69573;SDS011;62840;52.366;5.980;2023-12-04T12:17:40;13.75;;;5.82;;
69573;SDS011;62840;52.366;5.980;2023-12-04T12:20:07;12.43;;;5.55;;
69573;SDS011;62840;52.366;5.980;2023-12-04T12:22:36;13.47;;;5.67;;
69573;SDS011;62840;52.366;5.980;2023-12-04T12:25:03;16.13;;;5.88;;
69573;SDS011;62840;52.366;5.980;2023-12-04T12:27:31;12.50;;;5.80;;
69573;SDS011;62840;52.366;5.980;2023-12-04T12:29:57;12.73;;;4.78;;
69573;SDS011;62840;52.366;5.980;2023-12-04T12:32:26;12.60;;;4.93;;
69573;SDS011;62840;52.366;5.980;2023-12-04T12:34:52;7.93;;;4.20;;
69573;SDS011;62840;52.366;5.980;2023-12-04T12:37:18;9.90;;;4.63;;
69573;SDS011;62840;52.366;5.980;2023-12-04T12:39:44;8.88;;;3.92;;
69573;SDS011;62840;52.366;5.980;2023-12-04T12:42:11;10.43;;;4.40;;
69573;SDS011;62840;52.366;5.980;2023-12-04T12:44:45;9.60;;;4.23;;
69573;SDS011;62840;52.366;5.980;2023-12-04T12:47:14;10.00;;;3.90;;
69573;SDS011;62840;52.366;5.980;2023-12-04T12:49:43;8.93;;;3.53;;
69573;SDS011;62840;52.366;5.980;2023-12-04T12:52:09;10.82;;;4.10;;
69573;SDS011;62840;52.366;5.980;2023-12-04T12:54:36;8.97;;;4.23;;
69573;SDS011;62840;52.366;5.980;2023-12-04T12:57:02;8.07;;;3.90;;
69573;SDS011;62840;52.366;5.980;2023-12-04T12:59:29;7.65;;;3.35;;
69573;SDS011;62840;52.366;5.980;2023-12-04T13:01:55;8.40;;;3.78;;
69573;SDS011;62840;52.366;5.980;2023-12-04T13:04:21;9.70;;;4.15;;
69573;SDS011;62840;52.366;5.980;2023-12-04T13:06:50;8.70;;;3.80;;
69573;SDS011;62840;52.366;5.980;2023-12-04T13:09:16;8.90;;;4.35;;
69573;SDS011;62840;52.366;5.980;2023-12-04T13:11:42;8.02;;;4.13;;
69573;SDS011;62840;52.366;5.980;2023-12-04T13:14:07;8.85;;;4.30;;
69573;SDS011;62840;52.366;5.980;2023-12-04T13:16:33;7.93;;;4.17;;
69573;SDS011;62840;52.366;5.980;2023-12-04T13:18:59;8.70;;;4.30;;
69573;SDS011;62840;52.366;5.980;2023-12-04T13:21:25;9.53;;;4.57;;
69573;SDS011;62840;52.366;5.980;2023-12-04T13:23:53;8.18;;;3.72;;
69573;SDS011;62840;52.366;5.980;2023-12-04T13:26:19;8.35;;;4.03;;
69573;SDS011;62840;52.366;5.980;2023-12-04T13:28:45;7.70;;;3.90;;
69573;SDS011;62840;52.366;5.980;2023-12-04T13:31:11;7.63;;;3.88;;
69573;SDS011;62840;52.366;5.980;2023-12-04T13:33:37;9.00;;;4.80;;
69573;SDS011;62840;52.366;5.980;2023-12-04T13:36:03;9.95;;;4.60;;
69573;SDS011;62840;52.366;5.980;2023-12-04T13:38:30;9.45;;;4.35;;
69573;SDS011;62840;52.366;5.980;2023-12-04T13:40:59;10.07;;;4.38;;
69573;SDS011;62840;52.366;5.980;2023-12-04T13:43:25;10.80;;;4.43;;
69573;SDS011;62840;52.366;5.980;2023-12-04T13:45:52;10.93;;;4.60;;
69573;SDS011;62840;52.366;5.980;2023-12-04T13:48:18;10.05;;;4.35;;
69573;SDS011;62840;52.366;5.980;2023-12-04T13:50:44;10.73;;;4.93;;
69573;SDS011;62840;52.366;5.980;2023-12-04T13:53:09;9.07;;;4.50;;
69573;SDS011;62840;52.366;5.980;2023-12-04T13:55:35;10.57;;;4.63;;
69573;SDS011;62840;52.366;5.980;2023-12-04T13:58:04;9.98;;;4.20;;
69573;SDS011;62840;52.366;5.980;2023-12-04T14:00:29;9.47;;;4.10;;
69573;SDS011;62840;52.366;5.980;2023-12-04T14:02:55;8.65;;;4.07;;
69573;SDS011;62840;52.366;5.980;2023-12-04T14:05:21;8.57;;;4.20;;
69573;SDS011;62840;52.366;5.980;2023-12-04T14:07:47;10.10;;;4.43;;
69573;SDS011;62840;52.366;5.980;2023-12-04T14:10:13;9.70;;;4.15;;
69573;SDS011;62840;52.366;5.980;2023-12-04T14:12:39;9.70;;;3.90;;
69573;SDS011;62840;52.366;5.980;2023-12-04T14:15:08;9.07;;;3.83;;
69573;SDS011;62840;52.366;5.980;2023-12-04T14:17:34;8.53;;;3.67;;
69573;SDS011;62840;52.366;5.980;2023-12-04T14:20:00;9.38;;;3.78;;
69573;SDS011;62840;52.366;5.980;2023-12-04T14:22:27;8.70;;;3.78;;
69573;SDS011;62840;52.366;5.980;2023-12-04T14:24:53;7.67;;;3.83;;
69573;SDS011;62840;52.366;5.980;2023-12-04T14:27:19;7.55;;;3.33;;
69573;SDS011;62840;52.366;5.980;2023-12-04T14:29:44;7.88;;;3.20;;
69573;SDS011;62840;52.366;5.980;2023-12-04T14:32:13;8.07;;;3.17;;
69573;SDS011;62840;52.366;5.980;2023-12-04T14:34:39;7.53;;;3.25;;
69573;SDS011;62840;52.366;5.980;2023-12-04T14:37:05;10.20;;;3.20;;